Time;durP1;ratioP1;P1;durP2;ratioP2;P2;SDS_P1;SDS_P2;PMS_P1;PMS_P2;Temp;Humidity;BMP_temperature;BMP_pressure;BME280_temperature;BME280_humidity;BME280_pressure;Samples;Min_cycle;Max_cycle;Signal;HPM_P1;HPM_P2
2021/12/05 00:19:58;;;;;;;6.63;3.90;;;;;;;;;;4988535;28;20035;-46
2021/12/05 00:22:31;;;;;;;5.32;3.67;;;;;;;;;;4986106;28;20480;-43
2021/12/05 00:25:00;;;;;;;5.78;3.92;;;;;;;;;;4988131;28;20133;-44
2021/12/05 00:27:34;;;;;;;4.70;3.83;;;;;;;;;;5023344;28;20072;-43
2021/12/05 00:35:53;;;;;;;12.05;5.25;;;;;;;;;;5023730;28;20042;-44
2021/12/05 00:44:52;;;;;;;7.03;4.10;;;;;;;;;;5065843;28;20029;-45
2021/12/05 01:02:13;;;;;;;10.52;6.97;;;;;;;;;;5088209;28;20023;-43
2021/12/05 01:17:06;;;;;;;6.35;3.58;;;;;;;;;;5076664;28;20082;-43
2021/12/05 01:19:34;;;;;;;6.38;3.72;;;;;;;;;;5079009;28;20043;-43
2021/12/05 01:22:10;;;;;;;3.85;3.20;;;;;;;;;;5081897;28;20048;-42
2021/12/05 01:33:04;;;;;;;3.75;2.65;;;;;;;;;;5038860;28;20081;-42
2021/12/05 01:35:52;;;;;;;2.50;2.15;;;;;;;;;;5040589;28;20488;-43
2021/12/05 01:41:10;;;;;;;6.28;1.95;;;;;;;;;;5041541;28;20082;-42
2021/12/05 01:47:00;;;;;;;4.88;2.00;;;;;;;;;;5040826;28;20235;-44
2021/12/05 01:52:42;;;;;;;1.90;1.75;;;;;;;;;;5045155;28;20482;-43
2021/12/05 02:01:14;;;;;;;2.65;1.30;;;;;;;;;;5040812;28;20033;-42
2021/12/05 02:41:22;;;;;;;2.30;1.58;;;;;;;;;;5061995;28;20045;-42
2021/12/05 02:44:04;;;;;;;3.47;1.73;;;;;;;;;;5063056;28;20037;-43
2021/12/05 02:46:30;;;;;;;3.17;1.40;;;;;;;;;;5061591;28;20090;-42
2021/12/05 02:49:01;;;;;;;2.50;1.40;;;;;;;;;;5060398;28;20059;-43
2021/12/05 02:51:29;;;;;;;3.97;1.60;;;;;;;;;;5059117;28;20099;-43
2021/12/05 02:54:11;;;;;;;4.03;1.30;;;;;;;;;;5064469;28;20090;-43
2021/12/05 02:56:42;;;;;;;1.83;1.33;;;;;;;;;;5059880;28;20064;-42
2021/12/05 02:59:22;;;;;;;6.35;1.15;;;;;;;;;;5058704;28;20033;-43
2021/12/05 03:01:55;;;;;;;4.35;1.25;;;;;;;;;;5064078;28;20068;-43
2021/12/05 03:04:23;;;;;;;2.60;1.20;;;;;;;;;;5067793;28;20129;-43
2021/12/05 03:06:52;;;;;;;1.70;1.27;;;;;;;;;;5063415;28;20039;-42
2021/12/05 03:09:19;;;;;;;2.05;1.40;;;;;;;;;;5059657;28;20032;-44
2021/12/05 03:11:46;;;;;;;5.85;1.33;;;;;;;;;;5063592;28;20156;-43
2021/12/05 03:14:12;;;;;;;2.55;1.45;;;;;;;;;;5059944;28;20454;-42
2021/12/05 03:16:39;;;;;;;3.45;1.60;;;;;;;;;;5069701;28;20036;-43
2021/12/05 03:19:07;;;;;;;1.65;1.35;;;;;;;;;;5079235;28;20047;-43
2021/12/05 03:21:34;;;;;;;4.93;1.30;;;;;;;;;;5083618;28;20556;-42
2021/12/05 03:24:00;;;;;;;2.08;1.20;;;;;;;;;;5078726;28;20484;-43
2021/12/05 03:26:30;;;;;;;1.70;1.25;;;;;;;;;;5076828;28;20052;-42
2021/12/05 03:28:57;;;;;;;3.47;1.33;;;;;;;;;;5076723;28;20041;-42
2021/12/05 03:31:26;;;;;;;3.33;1.80;;;;;;;;;;5076114;28;20032;-43
2021/12/05 03:33:53;;;;;;;6.45;1.35;;;;;;;;;;5079760;28;20043;-43
2021/12/05 03:36:18;;;;;;;3.08;1.63;;;;;;;;;;5073929;28;20292;-43
2021/12/05 03:38:45;;;;;;;5.72;1.85;;;;;;;;;;5079627;28;20110;-48
2021/12/05 03:41:14;;;;;;;3.83;1.85;;;;;;;;;;5081813;28;20346;-42
2021/12/05 03:43:41;;;;;;;5.00;1.50;;;;;;;;;;5082050;28;20044;-45
2021/12/05 03:46:08;;;;;;;4.07;1.83;;;;;;;;;;5075452;28;20070;-43
2021/12/05 03:48:39;;;;;;;4.38;1.75;;;;;;;;;;5076938;28;20071;-43
2021/12/05 03:51:07;;;;;;;3.85;1.70;;;;;;;;;;5081344;28;20040;-42
2021/12/05 03:53:33;;;;;;;4.90;1.63;;;;;;;;;;5076098;28;20453;-42
2021/12/05 03:55:59;;;;;;;2.05;1.33;;;;;;;;;;5077361;28;20028;-43
2021/12/05 03:58:28;;;;;;;3.97;1.70;;;;;;;;;;5085430;28;20591;-43
2021/12/05 04:00:56;;;;;;;2.72;1.23;;;;;;;;;;5087965;28;20590;-42
2021/12/05 04:03:24;;;;;;;1.67;1.35;;;;;;;;;;5078543;28;20458;-45
2021/12/05 04:05:49;;;;;;;3.78;1.65;;;;;;;;;;5079206;28;20349;-43
2021/12/05 04:08:17;;;;;;;5.22;1.20;;;;;;;;;;5077927;28;20714;-42
2021/12/05 04:10:47;;;;;;;2.15;1.33;;;;;;;;;;5078425;28;20036;-44
2021/12/05 04:13:13;;;;;;;2.20;1.33;;;;;;;;;;5079094;28;20024;-44
2021/12/05 04:15:39;;;;;;;3.08;1.10;;;;;;;;;;5073424;28;20131;-43
2021/12/05 04:18:05;;;;;;;2.63;1.40;;;;;;;;;;5081240;28;20111;-43
2021/12/05 04:20:31;;;;;;;3.05;1.60;;;;;;;;;;5074974;28;20586;-42
2021/12/05 04:22:57;;;;;;;6.43;2.05;;;;;;;;;;5078348;28;20048;-45
2021/12/05 04:25:24;;;;;;;2.92;0.90;;;;;;;;;;5073781;28;20508;-43
2021/12/05 04:27:54;;;;;;;3.92;1.35;;;;;;;;;;5077735;28;20035;-44
2021/12/05 04:30:23;;;;;;;4.18;1.65;;;;;;;;;;5079995;28;20036;-43
2021/12/05 04:32:49;;;;;;;3.90;1.83;;;;;;;;;;5074516;28;20831;-42
2021/12/05 04:35:15;;;;;;;4.03;1.75;;;;;;;;;;5073263;28;20066;-45
2021/12/05 04:37:41;;;;;;;4.05;1.38;;;;;;;;;;5078378;28;20046;-42
2021/12/05 04:40:09;;;;;;;4.15;1.40;;;;;;;;;;5079402;28;20032;-45
2021/12/05 04:42:34;;;;;;;5.20;1.55;;;;;;;;;;5078080;28;20032;-44
2021/12/05 04:45:06;;;;;;;5.65;1.55;;;;;;;;;;5076215;28;20487;-44
2021/12/05 04:47:32;;;;;;;2.38;1.15;;;;;;;;;;5075671;28;20488;-45
2021/12/05 04:49:57;;;;;;;6.78;1.55;;;;;;;;;;5079156;28;20086;-45
2021/12/05 04:52:23;;;;;;;4.50;1.10;;;;;;;;;;5078535;28;20115;-46
2021/12/05 04:54:49;;;;;;;4.45;1.48;;;;;;;;;;5078527;28;20069;-43
2021/12/05 04:57:14;;;;;;;5.28;1.70;;;;;;;;;;5074913;28;20024;-43
2021/12/05 04:59:46;;;;;;;6.90;1.83;;;;;;;;;;5081348;28;20032;-42
2021/12/05 05:02:12;;;;;;;5.80;2.00;;;;;;;;;;5083110;28;20412;-42
2021/12/05 05:04:43;;;;;;;6.28;1.52;;;;;;;;;;5077458;28;20028;-42
2021/12/05 05:07:17;;;;;;;3.65;1.52;;;;;;;;;;5076347;28;20086;-43
2021/12/05 05:09:44;;;;;;;2.80;1.25;;;;;;;;;;5078258;28;20055;-44
2021/12/05 05:12:10;;;;;;;4.88;1.20;;;;;;;;;;5083418;28;20090;-43
2021/12/05 05:14:36;;;;;;;4.18;1.13;;;;;;;;;;5074415;28;20411;-43
2021/12/05 05:17:02;;;;;;;4.47;1.48;;;;;;;;;;5073919;28;20074;-46
2021/12/05 05:19:34;;;;;;;5.50;1.40;;;;;;;;;;5075684;28;20075;-42
2021/12/05 05:22:16;;;;;;;2.05;1.27;;;;;;;;;;5077020;28;20044;-43
2021/12/05 05:50:33;;;;;;;5.03;1.90;;;;;;;;;;5026510;28;20045;-42
2021/12/05 05:53:19;;;;;;;2.35;1.40;;;;;;;;;;5025274;28;20056;-42
2021/12/05 05:56:06;;;;;;;2.92;1.67;;;;;;;;;;5026953;28;20083;-46
2021/12/05 05:59:01;;;;;;;5.22;1.90;;;;;;;;;;5025788;28;20094;-45
2021/12/05 06:03:20;;;;;;;4.07;1.42;;;;;;;;;;5024796;28;20060;-42
2021/12/05 06:04:49;;;;;;;5.75;1.70;;;;;;;;;;5025891;28;20122;-41
2021/12/05 06:07:40;;;;;;;3.38;1.88;;;;;;;;;;5034089;28;20048;-45
2021/12/05 06:10:27;;;;;;;3.45;1.55;;;;;;;;;;5073271;28;20036;-44
2021/12/05 06:13:11;;;;;;;8.77;1.85;;;;;;;;;;5082855;28;20094;-43
2021/12/05 06:15:56;;;;;;;8.52;1.88;;;;;;;;;;5076741;28;20043;-42
2021/12/05 06:18:40;;;;;;;2.08;1.70;;;;;;;;;;5078461;28;20104;-42
2021/12/05 06:21:24;;;;;;;3.78;1.50;;;;;;;;;;5076226;28;20127;-45
2021/12/05 06:24:08;;;;;;;3.70;1.30;;;;;;;;;;5074756;28;20052;-44
2021/12/05 06:26:53;;;;;;;6.00;1.20;;;;;;;;;;5076895;28;20036;-46
2021/12/05 06:29:43;;;;;;;5.30;1.15;;;;;;;;;;5079421;28;20042;-47
2021/12/05 06:36:50;;;;;;;2.58;1.50;;;;;;;;;;5075250;28;20044;-42
2021/12/05 06:47:25;;;;;;;2.97;2.10;;;;;;;;;;5073477;28;20047;-44
2021/12/05 06:50:09;;;;;;;9.38;2.67;;;;;;;;;;5078603;28;20265;-46
2021/12/05 06:52:53;;;;;;;5.47;2.20;;;;;;;;;;5076127;28;20044;-43
2021/12/05 06:55:37;;;;;;;6.68;2.75;;;;;;;;;;5078244;28;20075;-42
2021/12/05 06:58:21;;;;;;;4.35;2.00;;;;;;;;;;5081956;28;20074;-48
2021/12/05 07:01:08;;;;;;;3.67;1.90;;;;;;;;;;5074550;28;20078;-46
2021/12/05 07:03:52;;;;;;;7.00;2.28;;;;;;;;;;5081843;28;20177;-46
2021/12/05 07:06:40;;;;;;;2.58;2.35;;;;;;;;;;5080685;28;20036;-43
2021/12/05 07:09:24;;;;;;;7.20;3.85;;;;;;;;;;5073156;28;20089;-43
2021/12/05 07:15:09;;;;;;;17.45;8.18;;;;;;;;;;5076746;28;20090;-47
2021/12/05 07:24:01;;;;;;;13.13;10.02;;;;;;;;;;5081669;28;20409;-43
2021/12/05 07:42:21;;;;;;;5.00;4.20;;;;;;;;;;5062132;28;20098;-45
2021/12/05 07:45:09;;;;;;;7.43;5.55;;;;;;;;;;5063920;28;20393;-43
2021/12/05 07:47:55;;;;;;;8.23;5.10;;;;;;;;;;5067372;28;20082;-43
2021/12/05 07:51:07;;;;;;;5.55;4.40;;;;;;;;;;5066839;28;20212;-43
2021/12/05 07:54:28;;;;;;;5.70;4.40;;;;;;;;;;5063891;28;20059;-45
2021/12/05 07:57:24;;;;;;;8.18;3.20;;;;;;;;;;5065311;28;20043;-42
2021/12/05 08:00:21;;;;;;;10.35;4.32;;;;;;;;;;5063670;28;20078;-43
2021/12/05 08:15:21;;;;;;;6.57;2.55;;;;;;;;;;5080264;28;20039;-43
2021/12/05 08:18:05;;;;;;;5.32;2.40;;;;;;;;;;5084568;28;20070;-43
2021/12/05 08:20:50;;;;;;;5.93;2.45;;;;;;;;;;5076950;28;20118;-48
2021/12/05 08:23:34;;;;;;;5.22;2.83;;;;;;;;;;5078842;28;20089;-42
2021/12/05 08:26:26;;;;;;;4.88;3.30;;;;;;;;;;5074807;28;20038;-42
2021/12/05 08:29:15;;;;;;;8.38;2.70;;;;;;;;;;5074003;28;20023;-42
2021/12/05 08:32:17;;;;;;;5.28;2.40;;;;;;;;;;5078167;28;20042;-42
2021/12/05 09:24:44;;;;;;;3.75;1.40;;;;;;;;;;5063395;28;20051;-44
2021/12/05 09:27:46;;;;;;;4.13;2.03;;;;;;;;;;5064616;28;20055;-43
2021/12/05 10:02:50;;;;;;;1.60;0.95;;;;;;;;;;5073600;28;20047;-45
2021/12/05 10:08:43;;;;;;;2.13;1.70;;;;;;;;;;5073464;28;20032;-46
2021/12/05 10:13:46;;;;;;;1.73;1.58;;;;;;;;;;5088582;28;20060;-48
2021/12/05 10:37:37;;;;;;;4.28;1.33;;;;;;;;;;5081009;28;20455;-46
2021/12/05 10:40:14;;;;;;;2.38;1.42;;;;;;;;;;5079575;28;20119;-43
2021/12/05 10:42:47;;;;;;;4.75;1.65;;;;;;;;;;5085238;28;20085;-49
2021/12/05 10:45:21;;;;;;;3.03;1.30;;;;;;;;;;5075758;28;20024;-43
2021/12/05 10:47:50;;;;;;;1.58;1.30;;;;;;;;;;5075548;28;20499;-43
2021/12/05 10:50:33;;;;;;;2.58;1.17;;;;;;;;;;5074456;28;20404;-43
2021/12/05 10:53:20;;;;;;;1.95;1.40;;;;;;;;;;5081198;28;20130;-44
2021/12/05 10:55:54;;;;;;;1.38;1.15;;;;;;;;;;5080147;28;20127;-45
2021/12/05 10:58:23;;;;;;;2.08;1.20;;;;;;;;;;5079974;28;20032;-43
2021/12/05 11:00:51;;;;;;;2.63;1.40;;;;;;;;;;5084197;28;20040;-43
2021/12/05 11:03:19;;;;;;;9.25;3.20;;;;;;;;;;5081085;28;20048;-44
2021/12/05 11:05:45;;;;;;;2.28;2.08;;;;;;;;;;5081251;28;20067;-44
2021/12/05 11:08:31;;;;;;;3.58;2.47;;;;;;;;;;5081462;28;20027;-46
2021/12/05 11:11:10;;;;;;;2.75;2.05;;;;;;;;;;5076558;28;20063;-44
2021/12/05 11:13:37;;;;;;;4.97;2.50;;;;;;;;;;5079221;28;20028;-43
2021/12/05 11:16:24;;;;;;;3.35;2.45;;;;;;;;;;5080729;28;20102;-43
2021/12/05 11:18:50;;;;;;;3.55;1.98;;;;;;;;;;5083109;28;20040;-44
2021/12/05 11:21:35;;;;;;;6.70;1.90;;;;;;;;;;5082249;28;20085;-44
2021/12/05 11:24:04;;;;;;;7.05;2.03;;;;;;;;;;5079390;28;20186;-43
2021/12/05 11:26:31;;;;;;;5.20;1.80;;;;;;;;;;5078998;28;20075;-44
2021/12/05 11:28:57;;;;;;;2.92;1.88;;;;;;;;;;5081668;28;20370;-44
2021/12/05 11:31:25;;;;;;;3.10;2.75;;;;;;;;;;5076817;28;20040;-43
2021/12/05 11:33:54;;;;;;;3.40;3.10;;;;;;;;;;5079046;28;20024;-44
2021/12/05 11:36:28;;;;;;;3.15;2.75;;;;;;;;;;5079131;28;20537;-43
2021/12/05 11:38:54;;;;;;;4.45;2.28;;;;;;;;;;5076212;28;20081;-44
2021/12/05 11:41:22;;;;;;;6.25;2.45;;;;;;;;;;5081015;28;20047;-45
2021/12/05 11:43:51;;;;;;;3.92;2.90;;;;;;;;;;5075148;28;20032;-44
2021/12/05 11:46:28;;;;;;;3.70;2.58;;;;;;;;;;5077477;28;20052;-44
2021/12/05 11:49:05;;;;;;;6.28;2.25;;;;;;;;;;5078565;28;20028;-43
2021/12/05 11:51:40;;;;;;;6.93;1.92;;;;;;;;;;5081276;28;20043;-44
2021/12/05 11:54:11;;;;;;;5.13;1.90;;;;;;;;;;5076155;28;20484;-44
2021/12/05 11:57:03;;;;;;;4.22;2.90;;;;;;;;;;5074347;28;20083;-45
2021/12/05 11:59:34;;;;;;;4.75;1.95;;;;;;;;;;5076977;28;20513;-44
2021/12/05 12:02:08;;;;;;;2.50;2.30;;;;;;;;;;5078119;28;20041;-44
2021/12/05 12:04:40;;;;;;;4.18;1.73;;;;;;;;;;5078737;28;20036;-48
2021/12/05 12:07:12;;;;;;;2.35;1.90;;;;;;;;;;5082608;28;20043;-44
2021/12/05 12:09:39;;;;;;;2.55;2.15;;;;;;;;;;5083201;28;20028;-45
2021/12/05 12:12:05;;;;;;;7.32;2.67;;;;;;;;;;5079433;28;20491;-46
2021/12/05 12:14:30;;;;;;;4.45;2.20;;;;;;;;;;5083685;28;20036;-44
2021/12/05 12:16:58;;;;;;;3.55;2.22;;;;;;;;;;5073935;28;20028;-43
2021/12/05 12:19:24;;;;;;;5.90;1.77;;;;;;;;;;5081481;28;20024;-44
2021/12/05 12:21:52;;;;;;;1.75;1.27;;;;;;;;;;5076454;28;20035;-45
2021/12/05 12:24:19;;;;;;;3.55;2.08;;;;;;;;;;5073896;28;20050;-44
2021/12/05 12:26:45;;;;;;;2.13;1.77;;;;;;;;;;5079778;28;20021;-43
2021/12/05 12:29:12;;;;;;;4.03;1.85;;;;;;;;;;5078830;28;20036;-44
2021/12/05 12:31:42;;;;;;;3.17;1.90;;;;;;;;;;5079479;28;20032;-43
2021/12/05 12:34:14;;;;;;;2.92;1.73;;;;;;;;;;5080135;28;20451;-44
2021/12/05 12:36:42;;;;;;;2.50;1.75;;;;;;;;;;5078286;28;20097;-44
2021/12/05 12:39:17;;;;;;;1.73;1.60;;;;;;;;;;5077303;28;20485;-47
2021/12/05 12:42:04;;;;;;;2.03;1.55;;;;;;;;;;5076033;28;20103;-43
2021/12/05 12:44:31;;;;;;;2.33;1.80;;;;;;;;;;5075367;28;20110;-44
2021/12/05 12:47:01;;;;;;;2.03;1.50;;;;;;;;;;5075877;28;20025;-46
2021/12/05 12:49:33;;;;;;;3.70;1.85;;;;;;;;;;5073419;28;20033;-44
2021/12/05 12:52:03;;;;;;;1.70;1.40;;;;;;;;;;5079360;28;20498;-46
2021/12/05 12:54:49;;;;;;;3.67;1.98;;;;;;;;;;5076425;28;20039;-45
2021/12/05 12:57:22;;;;;;;6.53;2.40;;;;;;;;;;5076723;28;20177;-44
2021/12/05 12:59:56;;;;;;;3.13;1.80;;;;;;;;;;5076495;28;20569;-44
2021/12/05 13:05:54;;;;;;;4.38;1.70;;;;;;;;;;5075930;28;20033;-43
2021/12/05 13:11:13;;;;;;;1.50;1.40;;;;;;;;;;5078666;28;20043;-43
2021/12/05 13:13:42;;;;;;;3.13;1.98;;;;;;;;;;5085121;28;20109;-44
2021/12/05 13:16:18;;;;;;;7.97;6.05;;;;;;;;;;5080372;28;20031;-43
2021/12/05 13:18:48;;;;;;;3.47;2.05;;;;;;;;;;5079027;28;20111;-44
2021/12/05 13:21:31;;;;;;;6.53;4.95;;;;;;;;;;5077210;28;20024;-43
2021/12/05 13:23:57;;;;;;;5.40;4.05;;;;;;;;;;5073904;28;20048;-44
2021/12/05 13:26:35;;;;;;;3.30;2.25;;;;;;;;;;5076735;28;20458;-45
2021/12/05 13:29:23;;;;;;;8.10;4.32;;;;;;;;;;5075182;28;20047;-44
2021/12/05 13:32:08;;;;;;;4.68;2.78;;;;;;;;;;5076943;28;20028;-45
2021/12/05 13:34:41;;;;;;;4.30;2.38;;;;;;;;;;5072816;28;20035;-44
2021/12/05 13:37:10;;;;;;;3.25;2.38;;;;;;;;;;5071541;28;20118;-43
2021/12/05 13:39:39;;;;;;;3.15;2.00;;;;;;;;;;5079674;28;20459;-43
2021/12/05 13:42:16;;;;;;;5.65;3.25;;;;;;;;;;5075191;28;20036;-43
2021/12/05 13:45:00;;;;;;;5.85;3.00;;;;;;;;;;5078567;28;20032;-43
2021/12/05 13:47:51;;;;;;;6.32;3.22;;;;;;;;;;5075000;28;20064;-44
2021/12/05 13:50:22;;;;;;;4.05;3.05;;;;;;;;;;5079197;28;20040;-44
2021/12/05 13:53:03;;;;;;;4.03;2.53;;;;;;;;;;5073233;28;20032;-45
2021/12/05 13:55:49;;;;;;;3.30;2.80;;;;;;;;;;5075377;28;20287;-43
2021/12/05 13:58:24;;;;;;;40.85;24.33;;;;;;;;;;5083129;28;20039;-43
2021/12/05 14:00:53;;;;;;;26.08;16.63;;;;;;;;;;5075486;28;20036;-45
2021/12/05 14:03:39;;;;;;;8.63;6.15;;;;;;;;;;5078505;28;20145;-49
2021/12/05 14:06:27;;;;;;;34.88;21.48;;;;;;;;;;5079442;28;20028;-45
2021/12/05 14:08:56;;;;;;;28.33;17.90;;;;;;;;;;5075439;28;20040;-45
2021/12/05 14:11:23;;;;;;;4.60;4.13;;;;;;;;;;5074470;28;20032;-48
2021/12/05 14:13:49;;;;;;;30.30;24.25;;;;;;;;;;5083547;28;20573;-48
2021/12/05 14:16:15;;;;;;;3.85;2.70;;;;;;;;;;5078477;28;20115;-47
2021/12/05 14:18:41;;;;;;;22.50;17.05;;;;;;;;;;5077198;28;20024;-47
2021/12/05 14:21:17;;;;;;;7.65;6.38;;;;;;;;;;5077035;28;20032;-44
2021/12/05 14:23:51;;;;;;;7.15;3.92;;;;;;;;;;5078426;28;20648;-46
2021/12/05 14:26:20;;;;;;;4.13;2.40;;;;;;;;;;5079593;28;20032;-45
2021/12/05 14:28:59;;;;;;;19.42;9.73;;;;;;;;;;5074201;28;20122;-44
2021/12/05 14:31:30;;;;;;;9.38;6.97;;;;;;;;;;5076574;28;20029;-44
2021/12/05 14:33:57;;;;;;;10.95;6.05;;;;;;;;;;5069945;28;20068;-43
2021/12/05 14:36:28;;;;;;;7.53;4.70;;;;;;;;;;5077316;28;20036;-44
2021/12/05 14:39:08;;;;;;;4.68;3.33;;;;;;;;;;5074245;28;20953;-45
2021/12/05 14:41:34;;;;;;;18.65;13.65;;;;;;;;;;5078540;28;20070;-44
2021/12/05 14:44:00;;;;;;;18.65;11.75;;;;;;;;;;5080210;28;20048;-46
2021/12/05 14:46:26;;;;;;;54.75;37.60;;;;;;;;;;5071178;28;20031;-48
2021/12/05 14:49:04;;;;;;;5.03;4.38;;;;;;;;;;5080279;28;20066;-43
2021/12/05 14:51:40;;;;;;;14.73;10.25;;;;;;;;;;5076322;28;20068;-44
2021/12/05 14:54:07;;;;;;;8.50;5.47;;;;;;;;;;5074902;28;20044;-44
2021/12/05 14:56:35;;;;;;;3.75;3.17;;;;;;;;;;5073330;28;20016;-44
2021/12/05 14:59:06;;;;;;;5.93;3.28;;;;;;;;;;5082291;28;20118;-44
2021/12/05 15:01:32;;;;;;;5.03;2.83;;;;;;;;;;5078927;28;20029;-49
2021/12/05 15:03:59;;;;;;;15.30;10.88;;;;;;;;;;5077365;28;20091;-44
2021/12/05 15:06:35;;;;;;;10.75;7.15;;;;;;;;;;5075168;28;20036;-44
2021/12/05 15:09:05;;;;;;;4.10;3.00;;;;;;;;;;5081941;28;20101;-43
2021/12/05 15:11:31;;;;;;;5.07;3.85;;;;;;;;;;5079791;28;23236;-47
2021/12/05 15:14:04;;;;;;;4.20;3.80;;;;;;;;;;5078534;28;20032;-44
2021/12/05 15:16:30;;;;;;;13.25;7.03;;;;;;;;;;5074347;28;20039;-45
2021/12/05 15:18:56;;;;;;;7.18;4.65;;;;;;;;;;5083584;28;20024;-44
2021/12/05 15:21:22;;;;;;;9.20;5.60;;;;;;;;;;5078240;28;20034;-44
2021/12/05 15:23:48;;;;;;;7.28;5.15;;;;;;;;;;5076708;28;20052;-45
2021/12/05 15:26:14;;;;;;;6.47;3.83;;;;;;;;;;5076198;28;20027;-46
2021/12/05 15:28:40;;;;;;;6.25;3.78;;;;;;;;;;5078444;28;20052;-44
2021/12/05 15:31:08;;;;;;;4.18;3.25;;;;;;;;;;5077676;28;20462;-43
2021/12/05 15:33:34;;;;;;;4.38;3.00;;;;;;;;;;5078497;28;20525;-44
2021/12/05 15:36:00;;;;;;;24.27;14.00;;;;;;;;;;5075331;28;20036;-46
2021/12/05 15:38:29;;;;;;;8.32;6.25;;;;;;;;;;5074550;28;20025;-44
2021/12/05 15:41:00;;;;;;;4.53;2.85;;;;;;;;;;5079526;28;20032;-48
2021/12/05 15:43:27;;;;;;;6.95;6.05;;;;;;;;;;5076958;28;20039;-45
2021/12/05 15:45:56;;;;;;;6.00;4.88;;;;;;;;;;5079937;28;20444;-45
2021/12/05 15:48:26;;;;;;;12.07;9.07;;;;;;;;;;5076226;28;20141;-47
2021/12/05 15:50:53;;;;;;;10.18;9.07;;;;;;;;;;5076413;28;20039;-45
2021/12/05 15:53:20;;;;;;;8.10;7.05;;;;;;;;;;5077694;28;20024;-44
2021/12/05 15:55:50;;;;;;;6.30;4.30;;;;;;;;;;5079956;28;20045;-46
2021/12/05 15:58:24;;;;;;;6.70;5.18;;;;;;;;;;5081715;28;20107;-44
2021/12/05 16:01:03;;;;;;;4.20;3.03;;;;;;;;;;5080551;28;20380;-48
2021/12/05 16:04:05;;;;;;;10.18;7.28;;;;;;;;;;5082637;28;20029;-48
2021/12/05 16:06:31;;;;;;;7.47;6.18;;;;;;;;;;4997473;28;20096;-46
2021/12/05 16:08:57;;;;;;;4.57;4.18;;;;;;;;;;5001675;28;20042;-45
2021/12/05 16:11:23;;;;;;;7.10;6.28;;;;;;;;;;5001364;28;20034;-47
2021/12/05 16:13:52;;;;;;;3.78;2.50;;;;;;;;;;5003513;28;20049;-48
2021/12/05 16:16:24;;;;;;;7.38;6.60;;;;;;;;;;5003219;28;20038;-46
2021/12/05 16:18:53;;;;;;;11.77;10.32;;;;;;;;;;5001633;28;20084;-50
2021/12/05 16:21:26;;;;;;;11.15;9.63;;;;;;;;;;5004984;28;20065;-45
2021/12/05 16:23:51;;;;;;;;;;;;;;;;;;5003643;28;20044;-50
2021/12/05 16:26:23;;;;;;;15.60;10.93;;;;;;;;;;5002440;28;19918;-49
2021/12/05 16:29:00;;;;;;;5.85;4.53;;;;;;;;;;5005636;28;20055;-44
2021/12/05 16:31:31;;;;;;;6.78;4.60;;;;;;;;;;5004320;28;20166;-45
2021/12/05 16:33:59;;;;;;;5.93;4.30;;;;;;;;;;5004461;28;20033;-43
2021/12/05 16:36:33;;;;;;;2.65;2.45;;;;;;;;;;4998696;28;20060;-45
2021/12/05 16:39:18;;;;;;;6.18;2.72;;;;;;;;;;4996096;28;20610;-44
2021/12/05 16:41:49;;;;;;;4.75;3.22;;;;;;;;;;5086322;28;20028;-44
2021/12/05 16:44:21;;;;;;;3.80;2.88;;;;;;;;;;5079067;28;20032;-42
2021/12/05 16:46:55;;;;;;;3.40;2.60;;;;;;;;;;5076563;28;20052;-43
2021/12/05 16:49:27;;;;;;;10.93;9.10;;;;;;;;;;5075980;28;20044;-43
2021/12/05 16:51:56;;;;;;;4.90;3.08;;;;;;;;;;5076256;28;20544;-43
2021/12/05 16:54:37;;;;;;;6.93;4.32;;;;;;;;;;5077478;28;20031;-44
2021/12/05 16:57:21;;;;;;;5.18;3.17;;;;;;;;;;5071912;28;20381;-43
2021/12/05 16:59:50;;;;;;;6.78;3.38;;;;;;;;;;5075899;28;20477;-46
2021/12/05 17:02:23;;;;;;;8.20;3.75;;;;;;;;;;5080348;28;20074;-44
2021/12/05 17:05:01;;;;;;;6.18;3.90;;;;;;;;;;5079736;28;20102;-43
2021/12/05 17:07:49;;;;;;;7.85;4.50;;;;;;;;;;5082191;28;20040;-44
2021/12/05 17:10:21;;;;;;;13.02;7.15;;;;;;;;;;5082027;28;20028;-42
2021/12/05 17:12:50;;;;;;;6.00;4.32;;;;;;;;;;5082312;28;20407;-45
2021/12/05 17:15:25;;;;;;;6.15;3.13;;;;;;;;;;5073199;28;20037;-44
2021/12/05 17:18:00;;;;;;;6.28;3.55;;;;;;;;;;5079260;28;20036;-43
2021/12/05 17:20:30;;;;;;;4.05;2.58;;;;;;;;;;5079480;28;20035;-43
2021/12/05 17:23:04;;;;;;;7.13;3.88;;;;;;;;;;5072675;28;20021;-45
2021/12/05 17:25:42;;;;;;;5.15;3.70;;;;;;;;;;5077388;28;20043;-46
2021/12/05 17:28:11;;;;;;;4.72;3.17;;;;;;;;;;5074894;28;20036;-44
2021/12/05 17:30:51;;;;;;;4.78;3.60;;;;;;;;;;5076322;28;20032;-43
2021/12/05 17:33:24;;;;;;;5.55;5.00;;;;;;;;;;5075225;28;20461;-43
2021/12/05 17:35:50;;;;;;;12.27;8.07;;;;;;;;;;5076619;28;20075;-46
2021/12/05 17:38:15;;;;;;;11.85;8.13;;;;;;;;;;5074928;28;20093;-43
2021/12/05 17:40:41;;;;;;;10.68;7.28;;;;;;;;;;5075547;28;20024;-44
2021/12/05 17:43:07;;;;;;;8.70;5.65;;;;;;;;;;5070762;28;20024;-44
2021/12/05 17:45:37;;;;;;;6.03;4.72;;;;;;;;;;5070654;28;20039;-43
2021/12/05 17:48:07;;;;;;;6.43;5.35;;;;;;;;;;5072437;28;20028;-43
2021/12/05 17:50:33;;;;;;;5.93;4.80;;;;;;;;;;5067327;28;20040;-45
2021/12/05 17:52:58;;;;;;;7.15;4.18;;;;;;;;;;5067793;28;20139;-44
2021/12/05 17:55:30;;;;;;;5.35;4.25;;;;;;;;;;5071766;28;20117;-44
2021/12/05 17:58:02;;;;;;;3.58;3.28;;;;;;;;;;5072731;28;20021;-45
2021/12/05 18:00:36;;;;;;;6.13;4.50;;;;;;;;;;5072124;28;20031;-43
2021/12/05 18:03:10;;;;;;;10.38;5.47;;;;;;;;;;5070827;28;20051;-43
2021/12/05 18:05:40;;;;;;;8.70;4.55;;;;;;;;;;5071793;28;20033;-44
2021/12/05 18:08:15;;;;;;;7.78;3.75;;;;;;;;;;5068555;28;20036;-44
2021/12/05 18:10:49;;;;;;;6.55;3.75;;;;;;;;;;5074761;28;20028;-44
2021/12/05 18:13:15;;;;;;;5.75;4.35;;;;;;;;;;5076141;28;20064;-44
2021/12/05 18:15:48;;;;;;;6.72;4.20;;;;;;;;;;5076090;28;20461;-46
2021/12/05 18:18:16;;;;;;;5.78;4.28;;;;;;;;;;5076945;28;20843;-43
2021/12/05 18:20:42;;;;;;;7.30;4.43;;;;;;;;;;5069179;28;20024;-44
2021/12/05 18:23:09;;;;;;;5.82;4.13;;;;;;;;;;5070247;28;20704;-43
2021/12/05 18:25:36;;;;;;;7.13;4.65;;;;;;;;;;5078214;28;20818;-44
2021/12/05 18:28:04;;;;;;;9.32;5.05;;;;;;;;;;5079268;28;20066;-44
2021/12/05 18:30:30;;;;;;;7.95;4.63;;;;;;;;;;5076450;28;20511;-44
2021/12/05 18:32:58;;;;;;;4.63;3.95;;;;;;;;;;5080039;28;20051;-42
2021/12/05 18:35:28;;;;;;;8.65;4.10;;;;;;;;;;5080977;28;20036;-44
2021/12/05 18:37:56;;;;;;;9.65;6.13;;;;;;;;;;5079314;28;20032;-45
2021/12/05 18:40:23;;;;;;;11.32;7.30;;;;;;;;;;5085426;28;20042;-44
2021/12/05 18:42:49;;;;;;;16.88;10.50;;;;;;;;;;5079646;28;20381;-43
2021/12/05 18:45:18;;;;;;;9.10;6.45;;;;;;;;;;5082674;28;20047;-43
2021/12/05 18:47:44;;;;;;;10.75;6.68;;;;;;;;;;5079518;28;20103;-44
2021/12/05 18:50:10;;;;;;;8.32;5.68;;;;;;;;;;5081304;28;20107;-44
2021/12/05 18:52:36;;;;;;;9.27;5.15;;;;;;;;;;5077178;28;20381;-44
2021/12/05 18:55:09;;;;;;;8.05;4.70;;;;;;;;;;5079705;28;20499;-44
2021/12/05 18:57:35;;;;;;;6.88;4.72;;;;;;;;;;5076172;28;20043;-44
2021/12/05 19:00:09;;;;;;;10.85;6.20;;;;;;;;;;5073579;28;20081;-44
2021/12/05 19:05:33;;;;;;;12.18;6.88;;;;;;;;;;5073250;28;20032;-45
2021/12/05 19:08:17;;;;;;;10.88;6.38;;;;;;;;;;5074605;28;20036;-44
2021/12/05 19:13:28;;;;;;;12.52;7.63;;;;;;;;;;5082737;28;20028;-47
2021/12/05 19:15:54;;;;;;;19.02;10.07;;;;;;;;;;5073473;28;20033;-47
2021/12/05 19:18:20;;;;;;;33.38;18.58;;;;;;;;;;5086378;28;20040;-47
2021/12/05 19:20:46;;;;;;;68.18;31.50;;;;;;;;;;5079607;28;20037;-47
2021/12/05 19:23:12;;;;;;;88.32;44.60;;;;;;;;;;5080022;28;20385;-44
2021/12/05 19:25:40;;;;;;;59.33;26.67;;;;;;;;;;5085156;28;20093;-47
2021/12/05 19:28:07;;;;;;;43.72;20.70;;;;;;;;;;5079128;28;20032;-44
2021/12/05 19:30:44;;;;;;;31.73;16.13;;;;;;;;;;5084324;28;20032;-48
2021/12/05 19:33:13;;;;;;;25.98;15.05;;;;;;;;;;5084653;28;20031;-46
2021/12/05 19:35:39;;;;;;;30.42;14.30;;;;;;;;;;5077154;28;20043;-45
2021/12/05 19:38:06;;;;;;;24.88;15.13;;;;;;;;;;5074199;28;20066;-45
2021/12/05 19:40:33;;;;;;;41.85;21.77;;;;;;;;;;5077567;28;20063;-45
2021/12/05 19:43:00;;;;;;;18.92;12.32;;;;;;;;;;5071196;28;20060;-47
2021/12/05 19:45:29;;;;;;;19.60;11.38;;;;;;;;;;5074381;28;20107;-44
2021/12/05 19:47:55;;;;;;;57.13;26.65;;;;;;;;;;5082717;28;20024;-45
2021/12/05 19:50:25;;;;;;;25.40;12.55;;;;;;;;;;5075168;28;20498;-43
2021/12/05 19:52:53;;;;;;;18.73;9.82;;;;;;;;;;5074358;28;20062;-45
2021/12/05 19:55:19;;;;;;;35.70;17.75;;;;;;;;;;5080355;28;20039;-45
2021/12/05 19:57:45;;;;;;;18.08;9.40;;;;;;;;;;5079586;28;20028;-42
2021/12/05 20:00:13;;;;;;;46.22;22.52;;;;;;;;;;5077193;28;20032;-46
2021/12/05 20:02:49;;;;;;;22.35;12.60;;;;;;;;;;5077085;28;20035;-45
2021/12/05 20:05:18;;;;;;;28.98;15.82;;;;;;;;;;5077829;28;20432;-44
2021/12/05 20:07:46;;;;;;;31.90;14.88;;;;;;;;;;5072599;28;20032;-45
2021/12/05 20:10:14;;;;;;;42.83;20.63;;;;;;;;;;5081370;28;20028;-44
2021/12/05 20:12:41;;;;;;;18.48;10.98;;;;;;;;;;5075574;28;20036;-45
2021/12/05 20:15:09;;;;;;;19.10;10.20;;;;;;;;;;5074810;28;20057;-47
2021/12/05 20:17:35;;;;;;;14.35;7.85;;;;;;;;;;5079771;28;20112;-45
2021/12/05 20:20:03;;;;;;;20.55;11.57;;;;;;;;;;5080816;28;20536;-45
2021/12/05 20:22:32;;;;;;;16.48;8.68;;;;;;;;;;5077870;28;20127;-44
2021/12/05 20:24:59;;;;;;;9.52;6.72;;;;;;;;;;5078394;28;20131;-46
2021/12/05 20:27:24;;;;;;;18.98;11.43;;;;;;;;;;5077394;28;20537;-45